createdAt,value
2022-09-28T00:00:56.091Z,84.86
2022-09-28T00:01:56.132Z,84.86
2022-09-28T00:02:56.080Z,84.35
2022-09-28T00:03:55.993Z,84.01
2022-09-28T00:04:55.981Z,84.86
2022-09-28T00:05:55.976Z,84.86
2022-09-28T00:06:56.263Z,84.15
2022-09-28T00:07:55.981Z,84.01
2022-09-28T00:08:55.943Z,84.11
2022-09-28T00:09:55.926Z,84.42
2022-09-28T00:10:55.936Z,84.66
2022-09-28T00:11:55.904Z,84.72
2022-09-28T00:12:55.913Z,84.52
2022-09-28T00:13:55.888Z,84.31
2022-09-28T00:14:55.876Z,84.72
2022-09-28T00:15:55.903Z,84.31
2022-09-28T00:16:55.851Z,84.56
2022-09-28T00:17:55.838Z,84.72
2022-09-28T00:18:55.845Z,84.72
2022-09-28T00:19:55.821Z,84.76
2022-09-28T00:20:55.802Z,84.66
2022-09-28T00:21:55.797Z,84.56
2022-09-28T00:22:55.780Z,84.62
2022-09-28T00:23:55.825Z,84.56
2022-09-28T00:24:55.777Z,84.35
2022-09-28T00:25:55.749Z,84.86
2022-09-28T00:26:55.740Z,84.56
2022-09-28T00:27:55.724Z,84.15
2022-09-28T00:28:55.727Z,84.66
2022-09-28T00:29:55.709Z,84.56
2022-09-28T00:30:55.726Z,84.86
2022-09-28T00:31:56.259Z,84.45
2022-09-28T00:32:55.672Z,84.56
2022-09-28T00:33:55.665Z,84.86
2022-09-28T00:34:55.652Z,84.45
2022-09-28T00:35:55.633Z,84.66
2022-09-28T00:36:55.677Z,84.45
2022-09-28T00:37:55.614Z,84.66
2022-09-28T00:38:55.607Z,84.59
2022-09-28T00:39:55.617Z,84.56
2022-09-28T00:40:55.668Z,84.76
2022-09-28T00:41:55.572Z,84.59
2022-09-28T00:42:55.598Z,84.76
2022-09-28T00:43:55.546Z,84.45
2022-09-28T00:44:55.538Z,84.59
2022-09-28T00:45:55.602Z,84.45
2022-09-28T00:46:55.536Z,84.70
2022-09-28T00:47:55.517Z,84.70
2022-09-28T00:48:55.539Z,84.59
2022-09-28T00:49:55.491Z,84.80
2022-09-28T00:50:55.509Z,84.70
2022-09-28T00:51:55.458Z,84.70
2022-09-28T00:52:55.459Z,84.70
2022-09-28T00:53:55.441Z,84.70
2022-09-28T00:54:55.496Z,84.76
2022-09-28T00:55:55.434Z,84.66
2022-09-28T00:56:55.406Z,84.70
2022-09-28T00:57:55.390Z,84.70
2022-09-28T00:58:55.385Z,84.70
2022-09-28T00:59:55.371Z,84.35
2022-09-28T01:00:55.463Z,84.39
2022-09-28T01:01:55.391Z,84.29
2022-09-28T01:02:55.332Z,84.35
2022-09-28T01:03:55.336Z,84.56
2022-09-28T01:04:55.315Z,84.80
2022-09-28T01:05:55.300Z,84.50
2022-09-28T01:06:55.345Z,84.76
2022-09-28T01:07:55.337Z,84.59
2022-09-28T01:08:55.262Z,84.90
2022-09-28T01:09:55.254Z,84.29
2022-09-28T01:10:55.271Z,84.50
2022-09-28T01:11:55.255Z,84.66
2022-09-28T01:12:55.237Z,84.80
2022-09-28T01:13:55.204Z,84.56
2022-09-28T01:14:55.192Z,84.59
2022-09-28T01:15:55.234Z,84.66
2022-09-28T01:16:55.209Z,84.56
2022-09-28T01:17:55.164Z,84.56
2022-09-28T01:18:55.192Z,84.76
2022-09-28T01:19:55.136Z,84.86
2022-09-28T01:20:55.129Z,84.70
2022-09-28T01:21:55.198Z,84.66
2022-09-28T01:22:55.107Z,84.86
2022-09-28T01:23:55.097Z,84.35
2022-09-28T01:24:55.105Z,84.39
2022-09-28T01:25:55.075Z,84.66
2022-09-28T01:26:55.146Z,84.80
2022-09-28T01:27:55.074Z,84.97
2022-09-28T01:28:55.056Z,84.76
2022-09-28T01:29:55.028Z,84.86
2022-09-28T01:30:55.080Z,84.66
2022-09-28T01:31:55.035Z,84.50
2022-09-28T01:32:55.009Z,84.25
2022-09-28T01:33:54.992Z,84.76
2022-09-28T01:34:55.073Z,84.25
2022-09-28T01:35:54.961Z,84.29
2022-09-28T01:36:55.007Z,84.35
2022-09-28T01:37:54.938Z,84.35
2022-09-28T01:38:54.957Z,84.09
2022-09-28T01:39:54.922Z,84.15
2022-09-28T01:40:55.033Z,84.19
2022-09-28T01:41:54.898Z,84.66
2022-09-28T01:42:54.949Z,84.19
2022-09-28T01:43:54.900Z,84.39
2022-09-28T01:44:54.896Z,84.39
2022-09-28T01:45:54.948Z,84.29
2022-09-28T01:46:54.843Z,84.29
2022-09-28T01:47:54.854Z,84.29
2022-09-28T01:48:54.835Z,84.50
2022-09-28T01:49:54.808Z,84.09
2022-09-28T01:50:54.793Z,84.29
2022-09-28T01:51:54.792Z,85.31
2022-09-28T01:52:54.808Z,84.19
2022-09-28T01:53:54.763Z,84.80
2022-09-28T01:54:54.803Z,84.39
2022-09-28T01:55:54.736Z,84.19
2022-09-28T01:56:54.748Z,85.21
2022-09-28T01:57:54.716Z,84.90
2022-09-28T01:58:54.710Z,84.39
2022-09-28T01:59:54.721Z,84.09
2022-09-28T02:00:54.827Z,84.39
2022-09-28T02:01:54.719Z,84.90
2022-09-28T02:02:54.660Z,85.00
2022-09-28T02:03:54.652Z,85.00
2022-09-28T02:04:54.639Z,85.00
2022-09-28T02:05:54.629Z,85.00
2022-09-28T02:06:54.642Z,84.90
2022-09-28T02:07:54.624Z,84.90
2022-09-28T02:08:54.588Z,84.80
2022-09-28T02:09:54.583Z,85.00
2022-09-28T02:10:54.579Z,84.90
2022-09-28T02:11:54.559Z,84.39
2022-09-28T02:12:54.584Z,84.39
2022-09-28T02:13:54.535Z,84.39
2022-09-28T02:14:54.543Z,84.09
2022-09-28T02:15:54.659Z,84.39
2022-09-28T02:16:54.504Z,85.00
2022-09-28T02:17:54.496Z,85.00
2022-09-28T02:18:54.523Z,85.00
2022-09-28T02:19:54.464Z,84.90
2022-09-28T02:20:54.525Z,84.90
2022-09-28T02:21:54.444Z,84.09
2022-09-28T02:22:54.440Z,84.09
2022-09-28T02:23:54.424Z,84.39
2022-09-28T02:24:54.448Z,84.09
2022-09-28T02:25:54.400Z,84.39
2022-09-28T02:26:54.415Z,84.39
2022-09-28T02:27:54.375Z,84.39
2022-09-28T02:28:54.398Z,84.19
2022-09-28T02:29:54.361Z,84.19
2022-09-28T02:30:54.375Z,84.19
2022-09-28T02:31:54.477Z,84.39
2022-09-28T02:32:54.324Z,85.21
2022-09-28T02:33:54.338Z,84.43
2022-09-28T02:34:54.303Z,84.33
2022-09-28T02:35:54.290Z,84.43
2022-09-28T02:36:54.317Z,84.50
2022-09-28T02:37:54.277Z,84.53
2022-09-28T02:38:54.258Z,84.53
2022-09-28T02:39:54.252Z,84.43
2022-09-28T02:40:54.281Z,84.43
2022-09-28T02:41:54.219Z,84.12
2022-09-28T02:42:54.238Z,84.23
2022-09-28T02:43:54.200Z,84.33
2022-09-28T02:44:54.189Z,84.33
2022-09-28T02:45:54.242Z,84.23
2022-09-28T02:46:54.168Z,84.23
2022-09-28T02:47:54.176Z,84.33
2022-09-28T02:49:10.389Z,84.43
2022-09-28T02:49:55.134Z,84.47
2022-09-28T02:50:54.120Z,84.33
2022-09-28T02:51:54.111Z,84.43
2022-09-28T02:52:54.099Z,84.88
2022-09-28T02:53:54.192Z,84.98
2022-09-28T02:54:54.097Z,84.47
2022-09-28T02:55:54.066Z,84.88
2022-09-28T02:56:54.074Z,85.08
2022-09-28T02:57:54.067Z,84.27
2022-09-28T02:58:54.028Z,85.08
2022-09-28T02:59:54.012Z,84.27
2022-09-28T03:00:54.095Z,85.08
2022-09-28T03:01:54.176Z,84.31
2022-09-28T03:02:53.986Z,85.08
2022-09-28T03:03:54.006Z,84.88
2022-09-28T03:04:53.962Z,85.08
2022-09-28T03:05:53.958Z,84.88
2022-09-28T03:06:53.997Z,84.88
2022-09-28T03:07:53.932Z,84.98
2022-09-28T03:08:53.911Z,85.22
2022-09-28T03:09:53.903Z,84.88
2022-09-28T03:10:53.896Z,85.19
2022-09-28T03:11:53.880Z,84.78
2022-09-28T03:12:53.885Z,84.92
2022-09-28T03:13:53.851Z,85.19
2022-09-28T03:14:53.839Z,84.78
2022-09-28T03:15:53.906Z,84.92
2022-09-28T03:16:53.824Z,84.88
2022-09-28T03:17:53.816Z,84.88
2022-09-28T03:18:53.813Z,84.98
2022-09-28T03:20:00.803Z,84.88
2022-09-28T03:21:01.319Z,84.88
2022-09-28T03:22:00.765Z,84.47
2022-09-28T03:23:23.420Z,85.02
2022-09-28T03:24:01.462Z,84.92
2022-09-28T03:24:53.728Z,84.92
2022-09-28T03:25:53.724Z,84.92
2022-09-28T03:26:53.711Z,85.33
2022-09-28T03:27:53.702Z,85.33
2022-09-28T03:28:53.695Z,85.33
2022-09-28T03:29:53.738Z,85.43
2022-09-28T03:30:53.671Z,85.22
2022-09-28T03:31:53.691Z,85.33
2022-09-28T03:32:53.644Z,85.22
2022-09-28T03:33:53.631Z,85.02
2022-09-28T03:34:53.647Z,85.02
2022-09-28T03:35:53.653Z,85.02
2022-09-28T03:36:53.625Z,85.02
2022-09-28T03:37:53.592Z,85.13
2022-09-28T03:38:53.579Z,85.02
2022-09-28T03:39:53.585Z,85.13
2022-09-28T03:40:53.669Z,85.28
2022-09-28T03:41:53.557Z,85.13
2022-09-28T03:42:53.528Z,85.13
2022-09-28T03:43:53.523Z,85.49
2022-09-28T03:44:53.541Z,85.19
2022-09-28T03:45:53.548Z,85.28
2022-09-28T03:46:53.489Z,85.28
2022-09-28T03:47:53.486Z,84.82
2022-09-28T03:48:53.467Z,84.98
2022-09-28T03:49:53.455Z,85.08
2022-09-28T03:50:53.443Z,85.60
2022-09-28T03:51:53.457Z,84.98
2022-09-28T03:52:53.418Z,84.78
2022-09-28T03:53:53.439Z,85.39
2022-09-28T03:54:53.401Z,85.39
2022-09-28T03:55:53.386Z,85.33
2022-09-28T03:56:53.378Z,84.78
2022-09-28T03:57:53.361Z,85.60
2022-09-28T03:58:53.354Z,85.08
2022-09-28T03:59:53.363Z,85.80
2022-09-28T04:00:53.347Z,85.13
2022-09-28T04:01:53.518Z,84.67
2022-09-28T04:02:53.305Z,85.28
2022-09-28T04:03:53.297Z,85.02
2022-09-28T04:04:53.278Z,85.33
2022-09-28T04:05:53.304Z,85.33
2022-09-28T04:06:53.418Z,85.33
2022-09-28T04:07:53.276Z,85.33
2022-09-28T04:08:53.240Z,85.33
2022-09-28T04:09:53.227Z,85.53
2022-09-28T04:10:53.244Z,85.63
2022-09-28T04:12:54.193Z,85.84
2022-09-28T04:13:53.195Z,85.63
2022-09-28T04:14:53.173Z,85.02
2022-09-28T04:15:53.162Z,85.43
2022-09-28T04:16:53.182Z,85.33
2022-09-28T04:17:53.227Z,85.33
2022-09-28T04:18:53.129Z,85.43
2022-09-28T04:19:53.119Z,85.63
2022-09-28T04:20:53.101Z,85.43
2022-09-28T04:21:53.092Z,85.13
2022-09-28T04:22:53.076Z,85.33
2022-09-28T04:23:53.111Z,85.22
2022-09-28T04:24:53.130Z,85.27
2022-09-28T04:25:53.040Z,85.37
2022-09-28T04:26:53.037Z,85.37
2022-09-28T04:27:53.019Z,85.37
2022-09-28T04:28:53.021Z,85.33
2022-09-28T04:29:53.016Z,85.37
2022-09-28T04:30:53.010Z,85.47
2022-09-28T04:31:53.079Z,85.37
2022-09-28T04:32:52.970Z,85.47
2022-09-28T04:33:52.953Z,85.47
2022-09-28T04:34:52.940Z,85.27
2022-09-28T04:35:52.977Z,85.37
2022-09-28T04:36:52.917Z,85.47
2022-09-28T04:37:52.910Z,85.47
2022-09-28T04:38:53.709Z,85.57
2022-09-28T04:39:52.907Z,85.27
2022-09-28T04:40:52.940Z,85.37
2022-09-28T04:41:53.041Z,85.27
2022-09-28T04:42:52.849Z,85.27
2022-09-28T04:43:52.838Z,85.37
2022-09-28T04:44:52.828Z,85.47
2022-09-28T04:45:52.846Z,85.37
2022-09-28T04:46:52.803Z,85.47
2022-09-28T04:47:52.867Z,85.41
2022-09-28T04:48:52.783Z,85.16
2022-09-28T04:49:52.771Z,85.57
2022-09-28T04:50:52.765Z,85.37
2022-09-28T04:51:52.775Z,85.41
2022-09-28T04:52:52.738Z,85.41
2022-09-28T04:53:52.823Z,85.37
2022-09-28T04:54:52.720Z,85.41
2022-09-28T04:55:52.753Z,85.41
2022-09-28T04:56:52.690Z,85.41
2022-09-28T04:57:52.707Z,85.61
2022-09-28T04:58:53.048Z,85.37
2022-09-28T04:59:52.697Z,85.30
2022-09-28T05:00:52.810Z,85.57
2022-09-28T05:01:52.655Z,85.30
2022-09-28T05:02:52.621Z,85.41
2022-09-28T05:03:52.620Z,85.51
2022-09-28T05:04:52.627Z,85.41
2022-09-28T05:05:52.604Z,85.51
2022-09-28T05:06:52.662Z,85.41
2022-09-28T05:07:52.573Z,85.61
2022-09-28T05:08:52.560Z,85.51
2022-09-28T05:09:52.547Z,85.41
2022-09-28T05:10:52.530Z,85.61
2022-09-28T05:11:52.606Z,85.41
2022-09-28T05:12:52.526Z,85.41
2022-09-28T05:13:52.505Z,85.41
2022-09-28T05:14:52.511Z,85.30
2022-09-28T05:15:56.981Z,85.41
2022-09-28T05:16:53.577Z,85.41
2022-09-28T05:17:52.449Z,85.41
2022-09-28T05:18:52.567Z,85.16
2022-09-28T05:19:52.438Z,85.61
2022-09-28T05:20:52.419Z,85.51
2022-09-28T05:21:52.430Z,85.21
2022-09-28T05:22:52.427Z,85.61
2022-09-28T05:23:52.387Z,85.30
2022-09-28T05:24:52.376Z,85.00
2022-09-28T05:25:52.388Z,85.51
2022-09-28T05:26:52.375Z,85.21
2022-09-28T05:27:52.369Z,86.43
2022-09-28T05:28:52.355Z,86.43
2022-09-28T05:29:52.318Z,86.47
2022-09-28T05:30:52.390Z,86.26
2022-09-28T05:31:52.321Z,86.33
2022-09-28T05:32:52.288Z,86.57
2022-09-28T05:33:52.278Z,86.47
2022-09-28T05:34:52.297Z,86.57
2022-09-28T05:35:55.116Z,86.22
2022-09-28T05:36:52.237Z,86.53
2022-09-28T05:37:52.236Z,86.57
2022-09-28T05:38:52.244Z,86.43
2022-09-28T05:39:52.207Z,86.36
2022-09-28T05:40:52.308Z,86.36
2022-09-28T05:41:52.184Z,86.43
2022-09-28T05:42:52.260Z,86.57
2022-09-28T05:43:52.181Z,86.33
2022-09-28T05:44:52.158Z,86.43
2022-09-28T05:45:55.612Z,86.43
2022-09-28T05:46:52.163Z,85.82
2022-09-28T05:47:52.228Z,85.51
2022-09-28T05:48:52.103Z,85.21
2022-09-28T05:49:52.098Z,85.71
2022-09-28T05:50:52.089Z,85.61
2022-09-28T05:51:52.073Z,85.37
2022-09-28T05:52:52.173Z,85.27
2022-09-28T05:53:52.051Z,85.47
2022-09-28T05:54:52.061Z,85.33
2022-09-28T05:55:52.024Z,85.22
2022-09-28T05:56:52.025Z,85.33
2022-09-28T05:57:52.001Z,85.53
2022-09-28T05:58:52.058Z,85.43
2022-09-28T05:59:52.013Z,85.49
2022-09-28T06:00:52.022Z,85.19
2022-09-28T06:01:51.961Z,85.28
2022-09-28T06:02:51.989Z,85.35
2022-09-28T06:03:51.939Z,85.75
2022-09-28T06:04:51.952Z,85.66
2022-09-28T06:05:52.002Z,85.45
2022-09-28T06:06:51.905Z,85.41
2022-09-28T06:07:51.899Z,85.21
2022-09-28T06:08:51.878Z,84.80
2022-09-28T06:09:51.925Z,85.00
2022-09-28T06:10:51.907Z,84.86
2022-09-28T06:11:51.847Z,84.66
2022-09-28T06:12:51.844Z,85.37
2022-09-28T06:13:51.821Z,84.97
2022-09-28T06:14:51.814Z,85.17
2022-09-28T06:15:51.853Z,84.97
2022-09-28T06:16:51.991Z,85.03
2022-09-28T06:17:51.781Z,84.72
2022-09-28T06:18:51.784Z,84.82
2022-09-28T06:19:51.759Z,84.38
2022-09-28T06:20:51.745Z,84.17
2022-09-28T06:21:51.759Z,84.68
2022-09-28T06:22:51.775Z,84.99
2022-09-28T06:23:51.717Z,84.54
2022-09-28T06:24:51.874Z,84.23
2022-09-28T06:29:08.101Z,83.89
2022-09-28T06:30:08.043Z,84.20
2022-09-28T06:31:08.193Z,84.60
2022-09-28T06:32:08.038Z,84.46
2022-09-28T06:33:08.024Z,84.16
2022-09-28T06:34:08.029Z,84.46
2022-09-28T06:35:08.070Z,84.36
2022-09-28T06:36:07.978Z,84.56
2022-09-28T06:37:07.971Z,84.32
2022-09-28T06:38:07.954Z,83.91
2022-09-28T06:39:07.939Z,84.12
2022-09-28T06:40:07.939Z,83.81
2022-09-28T06:41:07.934Z,83.77
2022-09-28T06:42:07.966Z,83.98
2022-09-28T06:43:07.892Z,84.28
2022-09-28T06:44:07.918Z,84.28
2022-09-28T06:45:07.878Z,84.58
2022-09-28T06:46:07.945Z,84.48
2022-09-28T06:47:07.894Z,84.08
2022-09-28T06:48:07.838Z,84.22
2022-09-28T06:49:07.826Z,84.48
2022-09-28T06:50:07.820Z,84.42
2022-09-28T06:51:07.805Z,84.12
2022-09-28T06:52:07.821Z,83.81
2022-09-28T06:53:07.844Z,84.01
2022-09-28T06:54:07.771Z,84.42
2022-09-28T06:55:07.771Z,84.52
2022-09-28T06:56:07.763Z,84.63
2022-09-28T06:57:07.751Z,84.63
2022-09-28T06:58:07.831Z,84.52
2022-09-28T06:59:07.788Z,84.38
2022-09-28T07:00:07.708Z,84.38
2022-09-28T07:01:07.826Z,84.08
2022-09-28T07:02:07.821Z,84.24
2022-09-28T07:03:07.784Z,84.14
2022-09-28T07:04:07.706Z,84.04
2022-09-28T07:05:07.664Z,84.34
2022-09-28T07:06:07.699Z,84.14
2022-09-28T07:07:07.624Z,83.59
2022-09-28T07:08:07.615Z,84.10
2022-09-28T07:09:23.818Z,83.80
2022-09-28T07:10:08.610Z,83.80
2022-09-28T07:11:07.580Z,83.76
2022-09-28T07:12:07.585Z,83.96
2022-09-28T07:13:12.646Z,84.06
2022-09-28T07:14:10.037Z,83.61
2022-09-28T07:15:07.551Z,83.72
2022-09-28T07:16:07.816Z,83.76
2022-09-28T07:17:13.695Z,83.51
2022-09-28T07:23:53.634Z,83.51
2022-09-28T07:24:48.946Z,84.02
2022-09-28T07:25:48.157Z,84.47
2022-09-28T07:26:48.807Z,84.22
2022-09-28T07:27:47.899Z,83.92
2022-09-28T07:28:47.913Z,84.42
2022-09-28T07:33:36.020Z,83.98
2022-09-28T07:45:05.999Z,84.22
2022-09-28T07:46:06.000Z,84.22
2022-09-28T07:47:05.927Z,84.47
2022-09-28T07:48:05.982Z,84.73
2022-09-28T07:49:08.493Z,84.42
2022-09-28T07:50:06.945Z,85.44
2022-09-28T07:59:31.400Z,84.63
2022-09-28T08:00:34.157Z,85.74
2022-09-28T08:01:31.204Z,85.13
2022-09-28T08:02:31.187Z,85.64
2022-09-28T08:03:31.118Z,84.73
2022-09-28T08:04:31.114Z,84.59
2022-09-28T08:05:31.137Z,84.65
2022-09-28T08:06:31.089Z,84.75
2022-09-28T08:07:31.070Z,84.65
2022-09-28T08:08:31.083Z,84.25
2022-09-28T08:09:31.077Z,84.20
2022-09-28T08:10:31.064Z,84.41
2022-09-28T08:11:31.039Z,83.86
2022-09-28T08:12:31.030Z,84.37
2022-09-28T08:13:31.001Z,83.96
2022-09-28T08:14:30.996Z,84.03
2022-09-28T08:15:30.984Z,84.12
2022-09-28T08:16:31.174Z,83.62
2022-09-28T08:17:30.979Z,83.92
2022-09-28T08:18:30.950Z,83.92
2022-09-28T08:19:30.980Z,83.98
2022-09-28T08:20:30.920Z,83.88
2022-09-28T08:21:31.497Z,83.58
2022-09-28T08:22:30.926Z,83.74
2022-09-28T08:23:30.949Z,83.64
2022-09-28T08:24:30.905Z,83.40
2022-09-28T08:25:30.877Z,83.60
2022-09-28T08:26:30.883Z,83.40
2022-09-28T08:27:30.842Z,84.01
2022-09-28T08:28:30.843Z,83.80
2022-09-28T08:29:30.890Z,83.87
2022-09-28T08:30:30.916Z,83.46
2022-09-28T08:31:30.805Z,83.12
2022-09-28T08:32:30.855Z,83.12
2022-09-28T08:33:30.783Z,83.62
2022-09-28T08:34:30.768Z,83.76
2022-09-28T08:35:30.814Z,83.97
2022-09-28T08:36:33.409Z,83.66
2022-09-28T08:37:30.741Z,83.97
2022-09-28T08:38:30.731Z,84.17
2022-09-28T08:39:30.926Z,83.97
2022-09-28T08:40:30.743Z,84.13
2022-09-28T08:41:30.831Z,83.83
2022-09-28T08:43:49.823Z,84.13
2022-09-28T08:44:49.929Z,84.03
2022-09-28T08:45:49.830Z,84.13
2022-09-28T08:46:49.923Z,84.43
2022-09-28T08:47:49.795Z,83.83
2022-09-28T08:49:06.872Z,84.13
2022-09-28T08:49:50.985Z,84.23
2022-09-28T08:50:49.736Z,84.13
2022-09-28T08:51:49.722Z,84.13
2022-09-28T08:52:49.918Z,83.83
2022-09-28T08:53:49.782Z,84.03
2022-09-28T08:54:49.688Z,84.13
2022-09-28T08:55:49.695Z,84.23
2022-09-28T08:56:49.670Z,83.48
2022-09-28T08:57:49.677Z,83.18
2022-09-28T08:58:49.681Z,83.45
2022-09-28T08:59:49.720Z,83.18
2022-09-28T09:00:49.717Z,83.99
2022-09-28T09:01:49.624Z,84.35
2022-09-28T09:02:49.739Z,83.75
2022-09-28T09:03:49.758Z,83.84
2022-09-28T09:04:49.637Z,83.54
2022-09-28T09:05:49.564Z,83.84
2022-09-28T09:06:49.551Z,83.84
2022-09-28T09:07:49.545Z,83.84
2022-09-28T09:08:49.567Z,84.05
2022-09-28T09:09:49.526Z,83.95
2022-09-28T09:10:49.606Z,83.45
2022-09-28T09:11:49.502Z,84.15
2022-09-28T09:12:49.572Z,83.95
2022-09-28T09:13:49.474Z,83.95
2022-09-28T09:14:49.464Z,83.84
2022-09-28T09:15:49.478Z,84.15
2022-09-28T09:16:49.559Z,83.54
2022-09-28T09:17:49.428Z,84.25
2022-09-28T09:18:49.424Z,83.84
2022-09-28T09:19:49.439Z,83.81
2022-09-28T09:20:49.392Z,84.11
2022-09-28T09:21:49.387Z,83.71
2022-09-28T09:22:49.391Z,83.67
2022-09-28T09:23:49.389Z,83.76
2022-09-28T09:24:49.371Z,84.27
2022-09-28T09:25:49.338Z,84.17
2022-09-28T09:26:49.331Z,83.87
2022-09-28T09:27:49.320Z,83.76
2022-09-28T09:28:49.335Z,83.87
2022-09-28T09:29:49.300Z,83.87
2022-09-28T09:30:49.338Z,83.26
2022-09-28T09:31:49.276Z,84.27
2022-09-28T09:32:49.263Z,83.76
2022-09-28T09:33:49.258Z,83.93
2022-09-28T09:34:49.300Z,84.03
2022-09-28T09:35:49.298Z,82.89
2022-09-28T09:36:49.373Z,82.98
2022-09-28T09:37:49.455Z,83.29
2022-09-28T09:38:49.336Z,83.79
2022-09-28T09:39:49.252Z,82.95
2022-09-28T09:40:49.355Z,83.69
2022-09-28T09:41:49.189Z,83.95
2022-09-28T09:42:49.181Z,83.55
2022-09-28T09:43:49.291Z,83.75
2022-09-28T09:44:49.190Z,82.84
2022-09-28T09:45:49.360Z,83.04
2022-09-28T09:46:49.176Z,83.04
2022-09-28T09:47:49.529Z,83.35
2022-09-28T09:48:49.087Z,83.11
2022-09-28T09:49:49.073Z,83.01
2022-09-28T09:50:49.086Z,83.31
2022-09-28T09:51:49.075Z,83.61
2022-09-28T09:52:49.077Z,83.71
2022-09-28T09:53:49.027Z,82.76
2022-09-28T09:54:49.015Z,82.97
2022-09-28T09:55:49.017Z,82.97
2022-09-28T09:56:48.993Z,83.57
2022-09-28T09:57:48.988Z,82.87
2022-09-28T09:58:49.288Z,82.97
2022-09-28T09:59:48.958Z,83.57
2022-09-28T10:00:48.953Z,83.77
2022-09-28T10:01:48.998Z,83.57
2022-09-28T10:02:49.078Z,83.87
2022-09-28T10:08:21.140Z,84.01
2022-09-28T10:09:21.117Z,83.75
2022-09-28T10:12:09.421Z,83.85
2022-09-28T10:15:47.712Z,84.15
2022-09-28T10:16:48.388Z,84.25
2022-09-28T10:17:47.658Z,85.05
2022-09-28T10:20:35.911Z,84.05
2022-09-28T10:25:04.771Z,84.05
2022-09-28T10:29:31.327Z,83.75
2022-09-28T10:31:54.878Z,84.45
2022-09-28T10:32:54.820Z,83.99
2022-09-28T10:33:54.798Z,84.19
2022-09-28T10:34:54.836Z,85.05
2022-09-28T10:35:54.778Z,85.02
2022-09-28T10:36:54.789Z,85.11
2022-09-28T10:37:54.772Z,84.61
2022-09-28T10:38:54.785Z,83.91
2022-09-28T10:39:54.746Z,84.27
2022-09-28T10:40:54.826Z,83.87
2022-09-28T10:45:36.307Z,82.97
2022-09-28T10:46:36.156Z,83.57
2022-09-28T10:47:43.494Z,83.67
2022-09-28T10:48:35.929Z,83.77
2022-09-28T10:49:35.908Z,83.77
2022-09-28T10:53:30.092Z,83.81
2022-09-28T10:57:13.497Z,84.01
2022-09-28T10:58:11.742Z,83.31
2022-09-28T10:59:11.816Z,83.87
2022-09-28T11:00:11.737Z,83.57
2022-09-28T11:01:11.780Z,83.67
2022-09-28T11:02:11.838Z,83.47
2022-09-28T11:03:11.683Z,83.53
2022-09-28T11:04:11.743Z,83.63
2022-09-28T11:08:10.518Z,83.73
2022-09-28T11:11:33.787Z,84.03
2022-09-28T11:12:33.875Z,83.97
2022-09-28T11:14:49.206Z,83.47
2022-09-28T11:15:48.995Z,83.47
2022-09-28T11:16:49.028Z,83.77
2022-09-28T11:17:48.964Z,83.97
2022-09-28T11:18:48.948Z,83.47
2022-09-28T11:19:49.010Z,84.03
2022-09-28T11:22:17.012Z,83.43
2022-09-28T11:23:16.970Z,83.93
2022-09-28T11:24:19.262Z,83.63
2022-09-28T11:25:17.296Z,83.47
2022-09-28T11:27:54.297Z,84.07
2022-09-28T11:28:53.982Z,83.67
2022-09-28T11:29:54.018Z,83.67
2022-09-28T11:30:54.079Z,83.77
2022-09-28T11:31:53.947Z,83.77
2022-09-28T11:32:53.934Z,83.77
2022-09-28T11:33:53.958Z,83.67
2022-09-28T11:34:59.712Z,83.77
2022-09-28T11:35:54.896Z,83.83
2022-09-28T11:36:55.683Z,83.23
2022-09-28T11:37:53.869Z,83.93
2022-09-28T11:38:53.860Z,83.93
2022-09-28T11:39:53.873Z,83.93
2022-09-28T11:40:53.897Z,83.63
2022-09-28T11:41:53.827Z,84.03
2022-09-28T11:42:53.841Z,83.43
2022-09-28T11:43:53.883Z,83.79
2022-09-28T11:44:53.791Z,83.39
2022-09-28T11:45:53.943Z,83.59
2022-09-28T11:46:53.767Z,83.49
2022-09-28T11:47:53.782Z,83.69
2022-09-28T11:48:53.752Z,83.09
2022-09-28T11:49:53.738Z,83.09
2022-09-28T11:50:53.729Z,83.09
2022-09-28T11:51:53.809Z,82.89
2022-09-28T11:52:53.705Z,82.89
2022-09-28T11:53:53.692Z,82.89
2022-09-28T11:54:53.714Z,82.75
2022-09-28T11:55:54.449Z,83.55
2022-09-28T11:56:53.668Z,83.45
2022-09-28T11:57:53.683Z,83.35
2022-09-28T11:58:53.633Z,83.15
2022-09-28T11:59:53.653Z,83.25
2022-09-28T12:00:53.613Z,83.35
2022-09-28T12:01:53.620Z,83.45
2022-09-28T12:02:53.730Z,83.05
2022-09-28T12:03:53.616Z,83.15
2022-09-28T12:04:53.577Z,83.65
2022-09-28T12:05:53.557Z,83.45
2022-09-28T12:06:53.553Z,83.55
2022-09-28T12:07:53.551Z,83.45
2022-09-28T12:08:53.537Z,83.35
2022-09-28T12:09:53.538Z,83.45
2022-09-28T12:10:54.420Z,83.35
2022-09-28T12:11:53.497Z,83.25
2022-09-28T12:12:53.489Z,83.15
2022-09-28T12:13:53.513Z,82.91
2022-09-28T12:14:53.470Z,83.51
2022-09-28T12:16:22.560Z,83.21
2022-09-28T12:17:05.907Z,83.41
2022-09-28T12:17:54.531Z,83.51
2022-09-28T12:18:53.501Z,83.21
2022-09-28T12:19:53.405Z,83.21
2022-09-28T12:20:53.401Z,83.21
2022-09-28T12:21:53.399Z,83.21
2022-09-28T12:22:53.370Z,83.41
2022-09-28T12:23:53.362Z,83.51
2022-09-28T12:24:53.345Z,83.21
2022-09-28T12:25:53.340Z,83.21
2022-09-28T12:26:53.325Z,83.21
2022-09-28T12:27:53.330Z,83.31
2022-09-28T12:28:53.316Z,83.11
2022-09-28T12:29:53.322Z,83.31
2022-09-28T12:30:53.334Z,83.25
2022-09-28T12:31:53.292Z,83.35
2022-09-28T12:32:53.254Z,83.05
2022-09-28T12:33:53.285Z,83.15
2022-09-28T12:34:53.235Z,82.81
2022-09-28T12:35:53.227Z,82.91
2022-09-28T12:36:53.213Z,82.91
2022-09-28T12:37:54.537Z,82.81
2022-09-28T12:39:14.639Z,83.01
2022-09-28T12:39:58.111Z,82.91
2022-09-28T12:40:53.237Z,82.71
2022-09-28T12:41:53.189Z,82.51
2022-09-28T12:42:53.148Z,82.71
2022-09-28T12:43:53.144Z,81.97
2022-09-28T12:44:58.563Z,82.77
2022-09-28T12:46:11.115Z,82.51
2022-09-28T12:46:54.197Z,82.61
2022-09-28T12:47:53.118Z,82.61
2022-09-28T12:49:24.134Z,82.81
2022-09-28T12:50:37.049Z,82.85
2022-09-28T12:50:57.436Z,82.85
2022-09-28T12:51:53.067Z,82.85
2022-09-28T12:52:53.060Z,82.69
2022-09-28T12:53:53.035Z,82.99
2022-09-28T12:54:53.024Z,82.89
2022-09-28T12:55:53.003Z,82.99
2022-09-28T12:56:53.006Z,82.69
2022-09-28T12:57:52.999Z,82.69
2022-09-28T12:58:52.994Z,82.89
2022-09-28T12:59:52.999Z,83.09
2022-09-28T13:00:52.947Z,82.79
2022-09-28T13:01:53.018Z,82.59
2022-09-28T13:02:53.085Z,82.85
2022-09-28T13:03:52.965Z,82.65
2022-09-28T13:04:52.905Z,83.05
2022-09-28T13:05:52.922Z,82.69
2022-09-28T13:06:52.881Z,82.65
2022-09-28T13:07:52.870Z,82.95
2022-09-28T13:08:52.914Z,82.65
2022-09-28T13:10:00.196Z,82.75
2022-09-28T13:10:52.850Z,82.75
2022-09-28T13:11:52.887Z,82.85
2022-09-28T13:12:52.820Z,82.85
2022-09-28T13:13:52.801Z,82.65
2022-09-28T13:14:52.817Z,82.05
2022-09-28T13:15:52.942Z,82.05
2022-09-28T13:16:55.210Z,82.05
2022-09-28T13:17:53.768Z,82.55
2022-09-28T13:18:52.747Z,82.75
2022-09-28T13:19:52.762Z,82.65
2022-09-28T13:20:52.733Z,82.65
2022-09-28T13:21:52.730Z,82.65
2022-09-28T13:22:52.703Z,82.75
2022-09-28T13:23:57.911Z,82.45
2022-09-28T13:24:53.699Z,82.75
2022-09-28T13:25:52.692Z,82.65
2022-09-28T13:26:52.656Z,82.75
2022-09-28T13:27:52.809Z,82.75
2022-09-28T13:28:52.666Z,82.65
2022-09-28T13:29:52.628Z,82.55
2022-09-28T13:30:52.735Z,82.75
2022-09-28T13:31:52.599Z,82.55
2022-09-28T13:32:52.604Z,82.55
2022-09-28T13:33:52.593Z,82.65
2022-09-28T13:34:52.576Z,82.69
2022-09-28T13:35:52.588Z,82.79
2022-09-28T13:36:52.546Z,82.59
2022-09-28T13:37:52.538Z,82.59
2022-09-28T13:38:52.518Z,82.79
2022-09-28T13:39:52.525Z,82.59
2022-09-28T13:40:52.537Z,82.69
2022-09-28T13:41:52.493Z,82.79
2022-09-28T13:42:52.479Z,82.79
2022-09-28T13:43:52.467Z,82.39
2022-09-28T13:44:52.459Z,82.09
2022-09-28T13:45:52.499Z,82.35
2022-09-28T13:46:52.439Z,81.95
2022-09-28T13:47:52.433Z,81.35
2022-09-28T13:48:52.415Z,81.61
2022-09-28T13:49:52.400Z,81.51
2022-09-28T13:50:52.384Z,81.30
2022-09-28T13:51:52.451Z,81.21
2022-09-28T13:52:52.367Z,81.30
2022-09-28T13:53:52.363Z,81.17
2022-09-28T13:54:52.349Z,81.51
2022-09-28T13:55:52.343Z,81.41
2022-09-28T13:56:52.322Z,81.17
2022-09-28T13:57:52.351Z,81.30
2022-09-28T13:58:52.300Z,81.41
2022-09-28T13:59:52.293Z,81.61
2022-09-28T14:00:52.284Z,81.91
2022-09-28T14:01:53.024Z,81.51
2022-09-28T14:02:52.345Z,81.71
2022-09-28T14:03:52.331Z,81.61
2022-09-28T14:04:52.242Z,81.65